Terminal Aerodrome Forecast
Issued by NWS

Home | Current Version | Previous Version | Text Only | Print | Product List | Glossary Off
Versions: 1 2 3 4 5 6 7 8 9 10 11 12 13 14 15 16 17 18 19 20

000
FTUS43 KMPX 080316 AAA
TAFAXN
TAF AMD
KAXN 080316Z 0803/0824 27010KT P6SM OVC080
     FM081000 32009KT P6SM SCT008 OVC014
     FM081300 30010KT P6SM OVC008
     FM082200 31020G32KT P6SM OVC015=

USA.gov is the U.S. government's official web portal to all federal, state and local government web resources and services.